Kriti Ruby — SVAT5 — position and weather

sailwx.info

Track history (hours):
 
Tides and Currents Weather Stations Pressure Air Temp Water Temp Dewpoint Dewpoint Depression Visibility Wind Speed Wind Dir Waves Ship Positions

Kriti Ruby

Last reported at 2017-Feb-24 06:17 UTC. Time now 2017-Feb-24 08:14 UTC.
Position N 29°12' W 094°39'.

Length 183 m; draft 8.5 m.

Type: Tanker. MMSI: 240941000.

Date/timePositionNaut miles runAvg speedWind from/ knotsBaromVisibWave heightAir tempDewpointWater temp
2017-Feb-24 06:17N 29°12' W 094°39'0 0.0
2017-Feb-24 04:29N 29°12' W 094°39'0 0.0
2017-Feb-24 02:32N 29°12' W 094°39'0 0.0
2017-Feb-23 20:23N 29°12' W 094°39'0 0.0
2017-Feb-23 11:32N 29°12' W 094°39'0 0.0
2017-Feb-23 10:29N 29°12' W 094°39'0 0.0
2017-Feb-23 08:17N 29°12' W 094°39'0 0.0
2017-Feb-23 07:32N 29°12' W 094°39'0 0.0
2017-Feb-23 06:32N 29°12' W 094°39'0 0.0
2017-Feb-23 05:32N 29°12' W 094°39'0 0.0
2017-Feb-23 04:32N 29°12' W 094°39'0 0.0
2017-Feb-23 03:32N 29°12' W 094°39'13 1.3
2017-Feb-22 17:33N 29°22' W 094°48'1111.4
2017-Feb-22 16:33N 29°32' W 094°54'1110.7
2017-Feb-22 15:34N 29°42' W 094°60'6 6.4
2017-Feb-22 14:33N 29°45' W 095°06'6 5.6
2017-Feb-22 13:33N 29°44' W 095°12'1 1.0
2017-Feb-22 12:32N 29°44' W 095°13'0 0.0
2017-Feb-22 11:32N 29°44' W 095°13'0 0.0
2017-Feb-22 10:32N 29°44' W 095°13'0 0.0
2017-Feb-21 20:33N 29°44' W 095°13'0 0.4
2017-Feb-21 19:31N 29°43' W 095°13'5 4.8
2017-Feb-21 18:33N 29°44' W 095°08'6 5.7
2017-Feb-21 17:33N 29°43' W 095°01'9 9.2
2017-Feb-21 16:33N 29°35' W 094°56'1110.8
2017-Feb-21 15:33N 29°26' W 094°50'10 9.6
2017-Feb-21 14:33N 29°20' W 094°41'7 0.2
2017-Feb-20 09:29N 29°19' W 094°33'0 0.0
2017-Feb-20 00:17N 29°19' W 094°33'0 0.0
2017-Feb-19 23:32N 29°19' W 094°33'0 0.0
2017-Feb-19 22:08N 29°19' W 094°33'0 0.0
2017-Feb-19 21:32N 29°19' W 094°33'0 0.0
2017-Feb-19 20:20N 29°19' W 094°33'0 0.0
2017-Feb-19 11:20N 29°19' W 094°33'0 0.0
2017-Feb-19 10:29N 29°19' W 094°33'0 0.0
2017-Feb-19 09:17N 29°19' W 094°33'0 0.0
2017-Feb-19 05:32N 29°19' W 094°33'0 0.0
2017-Feb-19 04:32N 29°19' W 094°33'0 0.0
2017-Feb-19 03:32N 29°19' W 094°33'0 0.0
2017-Feb-19 02:29N 29°19' W 094°33'0 0.0
2017-Feb-18 23:23N 29°19' W 094°33'  
Track history (hours):
 
Tides and Currents Weather Stations Pressure Air Temp Water Temp Dewpoint Dewpoint Depression Visibility Wind Speed Wind Dir Waves Ship Positions

Kriti Ruby

Last reported at 2017-Feb-24 06:17 UTC. Time now 2017-Feb-24 08:14 UTC.
Position N 29°12' W 094°39'.

Length 183 m; draft 8.5 m.

Type: Tanker. MMSI: 240941000.

Date/timePositionNaut miles runAvg speedWind from/ knotsBaromVisibWave heightAir tempDewpointWater temp
2017-Feb-24 06:17N 29°12' W 094°39'0 0.0
2017-Feb-24 04:29N 29°12' W 094°39'0 0.0
2017-Feb-24 02:32N 29°12' W 094°39'0 0.0
2017-Feb-23 20:23N 29°12' W 094°39'0 0.0
2017-Feb-23 11:32N 29°12' W 094°39'0 0.0
2017-Feb-23 10:29N 29°12' W 094°39'0 0.0
2017-Feb-23 08:17N 29°12' W 094°39'0 0.0
2017-Feb-23 07:32N 29°12' W 094°39'0 0.0
2017-Feb-23 06:32N 29°12' W 094°39'0 0.0
2017-Feb-23 05:32N 29°12' W 094°39'0 0.0
2017-Feb-23 04:32N 29°12' W 094°39'0 0.0
2017-Feb-23 03:32N 29°12' W 094°39'13 1.3
2017-Feb-22 17:33N 29°22' W 094°48'1111.4
2017-Feb-22 16:33N 29°32' W 094°54'1110.7
2017-Feb-22 15:34N 29°42' W 094°60'6 6.4
2017-Feb-22 14:33N 29°45' W 095°06'6 5.6
2017-Feb-22 13:33N 29°44' W 095°12'1 1.0
2017-Feb-22 12:32N 29°44' W 095°13'0 0.0
2017-Feb-22 11:32N 29°44' W 095°13'0 0.0
2017-Feb-22 10:32N 29°44' W 095°13'0 0.0
2017-Feb-21 20:33N 29°44' W 095°13'0 0.4
2017-Feb-21 19:31N 29°43' W 095°13'5 4.8
2017-Feb-21 18:33N 29°44' W 095°08'6 5.7
2017-Feb-21 17:33N 29°43' W 095°01'9 9.2
2017-Feb-21 16:33N 29°35' W 094°56'1110.8
2017-Feb-21 15:33N 29°26' W 094°50'10 9.6
2017-Feb-21 14:33N 29°20' W 094°41'7 0.2
2017-Feb-20 09:29N 29°19' W 094°33'0 0.0
2017-Feb-20 00:17N 29°19' W 094°33'0 0.0
2017-Feb-19 23:32N 29°19' W 094°33'0 0.0
2017-Feb-19 22:08N 29°19' W 094°33'0 0.0
2017-Feb-19 21:32N 29°19' W 094°33'0 0.0
2017-Feb-19 20:20N 29°19' W 094°33'0 0.0
2017-Feb-19 11:20N 29°19' W 094°33'0 0.0
2017-Feb-19 10:29N 29°19' W 094°33'0 0.0
2017-Feb-19 09:17N 29°19' W 094°33'0 0.0
2017-Feb-19 05:32N 29°19' W 094°33'0 0.0
2017-Feb-19 04:32N 29°19' W 094°33'0 0.0
2017-Feb-19 03:32N 29°19' W 094°33'0 0.0
2017-Feb-19 02:29N 29°19' W 094°33'0 0.0
2017-Feb-18 23:23N 29°19' W 094°33'  

Dump ship's entire track history